Time;durP1;ratioP1;P1;durP2;ratioP2;P2;SDS_P1;SDS_P2;PMS_P1;PMS_P2;Temp;Humidity;BMP_temperature;BMP_pressure;BME280_temperature;BME280_humidity;BME280_pressure;Samples;Min_cycle;Max_cycle;Signal;HPM_P1;HPM_P2
2023/08/13 00:01:43;;;;;;;4.23;2.60;;;;;;;21.11;76.57;99552.66;5108651;27;20233;-61
2023/08/13 00:04:10;;;;;;;3.57;2.33;;;;;;;21.07;76.97;99538.41;5108854;28;20200;-61
2023/08/13 00:06:37;;;;;;;3.57;2.57;;;;;;;21.06;76.31;99549.75;5108726;28;20582;-61
2023/08/13 00:09:04;;;;;;;3.47;2.50;;;;;;;21.05;77.30;99543.75;5108682;28;20208;-61
2023/08/13 00:11:32;;;;;;;3.70;2.43;;;;;;;21.00;76.54;99546.03;5108912;28;20204;-61
2023/08/13 00:13:59;;;;;;;3.63;2.60;;;;;;;20.94;76.46;99542.34;5108613;28;20207;-61
2023/08/13 00:16:26;;;;;;;3.57;2.67;;;;;;;20.97;77.43;99539.41;5108573;28;20202;-61
2023/08/13 00:18:53;;;;;;;3.63;2.50;;;;;;;20.97;77.91;99544.59;5108451;28;20203;-62
2023/08/13 00:21:20;;;;;;;4.03;2.60;;;;;;;20.94;77.90;99537.13;5108296;28;20245;-62
2023/08/13 00:23:47;;;;;;;4.97;2.57;;;;;;;20.88;78.01;99532.56;5108223;28;20208;-61
2023/08/13 00:26:13;;;;;;;4.00;2.50;;;;;;;20.88;77.65;99537.78;5108171;28;20205;-61
2023/08/13 00:28:42;;;;;;;3.87;2.70;;;;;;;20.86;77.50;99539.75;5108196;28;20197;-61
2023/08/13 00:31:08;;;;;;;3.13;2.40;;;;;;;20.85;77.78;99535.50;5108300;28;20206;-61
2023/08/13 00:33:35;;;;;;;4.20;2.50;;;;;;;20.84;78.77;99541.69;5108404;28;20230;-61
2023/08/13 00:36:02;;;;;;;4.47;2.70;;;;;;;20.79;77.58;99533.59;5108180;28;20201;-61
2023/08/13 00:38:29;;;;;;;3.03;2.30;;;;;;;20.78;77.79;99534.56;5108666;28;20202;-61
2023/08/13 00:40:56;;;;;;;6.67;2.70;;;;;;;20.72;78.60;99541.22;5108211;28;20231;-61
2023/08/13 00:43:23;;;;;;;4.20;2.70;;;;;;;20.74;78.70;99539.28;5108410;28;20695;-61
2023/08/13 00:45:51;;;;;;;3.33;2.60;;;;;;;20.76;78.93;99539.09;5108573;28;20576;-62
2023/08/13 00:48:18;;;;;;;3.70;2.73;;;;;;;20.71;78.92;99536.19;5108164;28;20224;-61
2023/08/13 00:50:47;;;;;;;3.47;2.70;;;;;;;20.69;78.63;99538.16;5108391;28;20200;-61
2023/08/13 00:53:15;;;;;;;5.00;2.43;;;;;;;20.71;79.21;99546.59;5108196;28;20215;-61
2023/08/13 00:55:42;;;;;;;3.20;2.37;;;;;;;20.70;78.81;99537.97;5108182;28;20227;-61
2023/08/13 00:58:09;;;;;;;4.47;2.57;;;;;;;20.69;79.29;99543.34;5108256;28;20506;-61
2023/08/13 01:00:37;;;;;;;8.83;2.47;;;;;;;20.66;79.49;99543.69;5107999;28;20328;-61
2023/08/13 01:03:07;;;;;;;3.87;2.50;;;;;;;20.67;79.93;99545.31;5107976;28;20517;-61
2023/08/13 01:05:39;;;;;;;3.67;2.57;;;;;;;20.67;79.31;99542.69;5108198;28;20668;-61
2023/08/13 01:08:12;;;;;;;4.20;2.67;;;;;;;20.68;80.32;99549.50;5107710;28;20209;-61
2023/08/13 01:10:40;;;;;;;2.70;2.10;;;;;;;20.69;79.71;99538.16;5107991;28;20700;-61
2023/08/13 01:13:13;;;;;;;3.93;2.80;;;;;;;20.66;80.10;99544.50;5108048;28;20214;-62
2023/08/13 01:15:41;;;;;;;3.80;2.70;;;;;;;20.67;80.31;99533.13;5107916;28;20207;-61
2023/08/13 01:18:10;;;;;;;7.33;2.53;;;;;;;20.65;80.13;99539.44;5108012;28;20220;-61
2023/08/13 01:20:39;;;;;;;3.80;2.70;;;;;;;20.65;80.43;99536.84;5107727;28;20668;-61
2023/08/13 01:23:07;;;;;;;3.33;2.50;;;;;;;20.62;80.42;99542.38;5107686;28;20205;-61
2023/08/13 01:25:35;;;;;;;4.07;2.33;;;;;;;20.60;81.19;99544.34;5107801;28;20203;-61
2023/08/13 01:28:09;;;;;;;4.50;2.50;;;;;;;20.58;82.37;99547.91;5110488;28;20227;-61
2023/08/13 01:30:39;;;;;;;4.33;2.77;;;;;;;20.55;83.51;99543.03;5111923;28;20248;-61
2023/08/13 01:33:09;;;;;;;3.10;2.40;;;;;;;20.52;84.73;99539.94;5111659;28;20229;-61
2023/08/13 01:35:36;;;;;;;5.83;2.80;;;;;;;20.45;84.28;99544.97;5111683;28;20598;-61
2023/08/13 01:38:04;;;;;;;4.00;2.60;;;;;;;20.31;84.35;99545.63;5111686;28;20192;-61
2023/08/13 01:40:32;;;;;;;4.70;2.60;;;;;;;20.29;84.56;99542.38;5111518;28;20227;-61
2023/08/13 01:42:59;;;;;;;4.37;2.93;;;;;;;20.32;85.08;99542.03;5111615;28;20677;-61
2023/08/13 01:45:26;;;;;;;5.93;2.83;;;;;;;20.31;85.43;99546.44;5111352;28;20227;-61
2023/08/13 01:47:53;;;;;;;3.87;2.70;;;;;;;20.27;86.03;99544.31;5111388;28;20212;-61
2023/08/13 01:50:21;;;;;;;3.90;2.80;;;;;;;20.19;85.65;99546.91;5111148;28;20218;-61
2023/08/13 01:52:49;;;;;;;3.20;2.60;;;;;;;20.12;86.33;99551.94;5111351;28;20203;-61
2023/08/13 01:55:15;;;;;;;4.77;2.93;;;;;;;20.07;87.21;99564.56;5110726;28;20207;-61
2023/08/13 01:57:44;;;;;;;4.90;2.90;;;;;;;20.05;86.53;99569.94;5110576;28;20210;-61
2023/08/13 02:00:12;;;;;;;3.57;2.83;;;;;;;19.96;87.74;99557.91;5111057;28;20220;-61
2023/08/13 02:02:39;;;;;;;4.30;2.80;;;;;;;19.93;87.91;99563.44;5111025;28;20238;-61
2023/08/13 02:05:07;;;;;;;5.63;2.93;;;;;;;19.88;89.28;99561.31;5111108;28;20688;-61
2023/08/13 02:07:33;;;;;;;6.80;3.00;;;;;;;19.83;89.33;99557.56;5110927;28;20195;-61
2023/08/13 02:10:00;;;;;;;5.77;2.90;;;;;;;19.79;89.94;99562.25;5111082;28;20204;-61
2023/08/13 02:12:27;;;;;;;3.53;2.60;;;;;;;19.79;90.82;99556.25;5111193;28;20207;-62
2023/08/13 02:14:55;;;;;;;3.80;2.70;;;;;;;19.75;90.49;99553.19;5110917;28;20202;-61
2023/08/13 02:17:22;;;;;;;4.10;2.70;;;;;;;19.70;89.57;99554.63;5110724;28;20199;-61
2023/08/13 02:19:49;;;;;;;3.63;2.80;;;;;;;19.62;90.35;99556.19;5110791;28;20219;-61
2023/08/13 02:22:16;;;;;;;3.40;2.60;;;;;;;19.57;91.31;99555.81;5110635;28;20240;-61
2023/08/13 02:24:43;;;;;;;4.37;2.67;;;;;;;19.44;92.62;99548.50;5110804;28;20221;-61
2023/08/13 02:27:10;;;;;;;4.03;2.90;;;;;;;19.41;94.54;99553.19;5110621;28;20561;-61
2023/08/13 02:29:37;;;;;;;4.13;2.80;;;;;;;19.39;96.55;99549.94;5110761;28;20204;-61
2023/08/13 02:32:05;;;;;;;4.73;3.00;;;;;;;19.38;98.09;99545.72;5110707;28;20221;-61
2023/08/13 02:34:33;;;;;;;5.00;3.23;;;;;;;19.35;99.64;99548.63;5110598;28;20204;-61
2023/08/13 02:37:01;;;;;;;5.03;3.33;;;;;;;19.31;100.00;99542.13;5110586;28;20203;-61
2023/08/13 02:39:28;;;;;;;4.77;3.17;;;;;;;19.25;100.00;99553.13;5110072;28;20593;-61
2023/08/13 02:41:55;;;;;;;6.53;3.23;;;;;;;19.21;100.00;99550.84;5110188;28;20226;-61
2023/08/13 02:44:22;;;;;;;5.30;3.30;;;;;;;19.21;100.00;99550.84;5110197;28;20223;-61
2023/08/13 02:46:49;;;;;;;5.93;3.67;;;;;;;19.22;100.00;99560.22;5110058;28;20684;-61
2023/08/13 02:49:17;;;;;;;5.60;3.50;;;;;;;19.22;100.00;99557.63;5109964;28;20222;-61
2023/08/13 02:51:44;;;;;;;4.33;3.10;;;;;;;19.19;100.00;99570.09;5110301;28;20199;-61
2023/08/13 02:54:11;;;;;;;7.10;4.27;;;;;;;19.17;100.00;99561.69;5109980;28;20211;-61
2023/08/13 02:56:38;;;;;;;4.90;3.63;;;;;;;19.14;100.00;99562.81;5110063;28;20194;-61
2023/08/13 02:59:05;;;;;;;5.00;3.60;;;;;;;19.10;100.00;99566.66;5110138;28;20622;-61
2023/08/13 03:01:32;;;;;;;5.97;3.73;;;;;;;19.06;100.00;99560.16;5110322;28;20229;-61
2023/08/13 03:04:02;;;;;;;6.00;3.40;;;;;;;18.99;100.00;99564.31;5110070;28;20295;-61
2023/08/13 03:06:31;;;;;;;7.03;3.67;;;;;;;18.94;100.00;99569.16;5110393;28;20202;-61
2023/08/13 03:08:58;;;;;;;8.90;3.80;;;;;;;18.87;100.00;99570.72;5109608;28;20198;-61
2023/08/13 03:11:24;;;;;;;5.27;3.90;;;;;;;18.81;100.00;99571.34;5109684;28;20201;-61
2023/08/13 03:13:52;;;;;;;6.63;3.60;;;;;;;18.77;100.00;99576.81;5109792;28;20200;-61
2023/08/13 03:16:20;;;;;;;4.90;3.27;;;;;;;18.75;100.00;99577.94;5109565;28;20694;-61
2023/08/13 03:18:47;;;;;;;4.57;3.20;;;;;;;18.70;100.00;99570.59;5109586;28;20197;-61
2023/08/13 03:21:14;;;;;;;7.23;4.00;;;;;;;18.68;100.00;99572.53;5109336;28;20240;-61
2023/08/13 03:23:42;;;;;;;5.50;3.77;;;;;;;18.67;100.00;99573.47;5109123;27;20213;-61
2023/08/13 03:26:09;;;;;;;4.93;3.60;;;;;;;18.59;100.00;99568.25;5109291;28;20713;-61
2023/08/13 03:28:36;;;;;;;9.23;3.77;;;;;;;18.55;100.00;99572.88;5109511;28;20235;-61
2023/08/13 03:31:03;;;;;;;6.67;3.70;;;;;;;18.54;100.00;99575.66;5109545;28;20204;-61
2023/08/13 03:33:30;;;;;;;4.60;3.20;;;;;;;18.53;100.00;99574.03;5109535;28;20901;-61
2023/08/13 03:35:57;;;;;;;5.90;3.10;;;;;;;18.54;100.00;99567.88;5109288;28;20198;-61
2023/08/13 03:38:24;;;;;;;5.00;3.27;;;;;;;18.57;100.00;99575.34;5109068;28;20697;-61
2023/08/13 03:40:54;;;;;;;5.70;3.60;;;;;;;18.56;100.00;99578.91;5109020;28;20666;-61
2023/08/13 03:43:21;;;;;;;4.67;3.10;;;;;;;18.60;100.00;99579.41;5109335;28;20254;-61
2023/08/13 03:45:48;;;;;;;6.73;3.53;;;;;;;18.63;100.00;99585.09;5109019;28;20219;-61
2023/08/13 03:48:14;;;;;;;6.50;3.23;;;;;;;18.69;100.00;99584.50;5108826;28;20201;-61
2023/08/13 03:50:41;;;;;;;4.50;3.30;;;;;;;18.72;100.00;99584.19;5108216;28;20210;-61
2023/08/13 03:53:08;;;;;;;5.63;3.17;;;;;;;18.75;100.00;99588.28;5108795;28;20198;-61
2023/08/13 03:55:35;;;;;;;7.17;3.07;;;;;;;18.75;100.00;99586.50;5108901;28;20202;-61
2023/08/13 03:58:03;;;;;;;4.83;2.93;;;;;;;18.76;100.00;99585.56;5108960;28;20675;-61
2023/08/13 04:00:31;;;;;;;4.50;3.23;;;;;;;18.81;100.00;99592.06;5108827;28;20198;-61
2023/08/13 04:02:58;;;;;;;5.93;3.50;;;;;;;18.82;100.00;99583.31;5109285;28;20252;-61
2023/08/13 04:05:25;;;;;;;5.37;3.20;;;;;;;18.87;100.00;99586.28;5108981;28;20230;-61
2023/08/13 04:07:52;;;;;;;7.83;3.47;;;;;;;18.89;100.00;99579.16;5108557;28;20474;-62
2023/08/13 04:10:19;;;;;;;5.17;3.13;;;;;;;18.92;100.00;99589.22;5108457;28;20204;-61
2023/08/13 04:12:46;;;;;;;4.20;3.13;;;;;;;18.94;100.00;99584.72;5108637;28;20198;-61
2023/08/13 04:15:14;;;;;;;5.53;3.50;;;;;;;19.00;100.00;99591.88;5108179;28;20205;-61
2023/08/13 04:17:41;;;;;;;5.27;3.40;;;;;;;19.06;100.00;99599.03;5107500;28;20606;-61
2023/08/13 04:20:10;;;;;;;4.73;3.10;;;;;;;19.05;100.00;99599.97;5108354;28;20198;-61
2023/08/13 04:22:37;;;;;;;5.03;3.50;;;;;;;19.10;100.00;99607.31;5108539;28;20268;-61
2023/08/13 04:25:04;;;;;;;4.73;3.40;;;;;;;19.11;100.00;99598.56;5108491;28;20213;-61
2023/08/13 04:27:30;;;;;;;4.13;3.20;;;;;;;19.18;100.00;99610.75;5108352;28;20701;-61
2023/08/13 04:29:57;;;;;;;5.63;3.40;;;;;;;19.27;100.00;99608.22;5108289;28;20194;-61
2023/08/13 04:32:26;;;;;;;5.10;3.20;;;;;;;19.31;100.00;99617.31;5108632;28;20204;-61
2023/08/13 04:34:53;;;;;;;4.13;3.13;;;;;;;19.30;100.00;99616.50;5108391;28;20254;-61
2023/08/13 04:37:20;;;;;;;4.93;3.13;;;;;;;19.47;100.00;99621.78;5108076;28;20623;-61
2023/08/13 04:39:47;;;;;;;5.97;2.90;;;;;;;19.53;100.00;99624.56;5108075;28;20228;-61
2023/08/13 04:42:13;;;;;;;6.43;3.30;;;;;;;19.55;100.00;99627.81;5108001;28;20246;-62
2023/08/13 04:44:40;;;;;;;4.47;2.93;;;;;;;19.65;100.00;99631.13;5108332;28;20599;-61
2023/08/13 04:47:07;;;;;;;5.00;3.40;;;;;;;19.73;100.00;99634.72;5107954;28;20283;-61
2023/08/13 04:49:35;;;;;;;5.03;3.67;;;;;;;19.81;100.00;99630.38;5108188;28;20196;-61
2023/08/13 04:52:02;;;;;;;4.40;3.13;;;;;;;19.90;100.00;99639.00;5108320;28;20218;-61
2023/08/13 04:54:29;;;;;;;6.57;3.10;;;;;;;20.09;100.00;99633.53;5108207;28;20199;-61
2023/08/13 04:56:56;;;;;;;5.37;3.20;;;;;;;20.21;100.00;99638.44;5108005;28;20200;-61
2023/08/13 04:59:23;;;;;;;4.30;3.30;;;;;;;20.35;99.13;99640.41;5108099;28;20219;-61
2023/08/13 05:01:49;;;;;;;6.93;3.10;;;;;;;20.48;96.85;99642.56;5110040;28;20326;-61
2023/08/13 05:04:17;;;;;;;4.60;3.23;;;;;;;20.60;94.86;99643.06;5111871;28;20708;-62
2023/08/13 05:06:45;;;;;;;3.77;2.97;;;;;;;20.80;97.75;99636.56;5112257;28;20198;-61
2023/08/13 05:09:12;;;;;;;5.10;3.43;;;;;;;21.00;98.30;99640.47;5111877;28;20597;-61
2023/08/13 05:11:39;;;;;;;5.10;3.13;;;;;;;21.13;96.65;99642.53;5111914;28;20207;-61
2023/08/13 05:14:06;;;;;;;3.80;2.90;;;;;;;21.23;92.95;99644.94;5111922;28;20199;-62
2023/08/13 05:16:32;;;;;;;5.47;3.00;;;;;;;21.31;91.10;99657.13;5111955;28;20195;-61
2023/08/13 05:18:59;;;;;;;3.67;3.03;;;;;;;21.41;90.67;99650.81;5112167;28;20199;-61
2023/08/13 05:21:26;;;;;;;4.20;2.73;;;;;;;21.45;89.45;99644.28;5112004;28;20196;-61
2023/08/13 05:23:54;;;;;;;3.63;2.80;;;;;;;21.62;90.54;99639.84;5111825;28;20227;-61
2023/08/13 05:26:21;;;;;;;4.23;3.17;;;;;;;21.92;93.73;99651.25;5111646;28;20209;-62
2023/08/13 05:28:48;;;;;;;4.27;2.80;;;;;;;22.11;88.98;99649.22;5111757;28;20208;-62
2023/08/13 05:31:15;;;;;;;4.00;2.67;;;;;;;22.30;88.80;99658.41;5111672;28;20283;-62
2023/08/13 05:33:42;;;;;;;3.60;2.57;;;;;;;22.51;87.99;99662.97;5111645;28;20205;-61
2023/08/13 05:36:09;;;;;;;3.58;2.70;;;;;;;22.62;88.43;99661.78;5111388;28;20208;-61
2023/08/13 05:38:36;;;;;;;4.53;3.13;;;;;;;22.69;87.12;99660.91;5111433;28;20197;-61
2023/08/13 05:41:04;;;;;;;4.03;2.85;;;;;;;22.98;93.91;99656.75;5111370;28;20198;-61
2023/08/13 05:43:31;;;;;;;4.93;3.00;;;;;;;23.16;85.93;99654.66;5111560;28;20240;-61
2023/08/13 05:45:58;;;;;;;4.13;2.80;;;;;;;23.39;86.72;99657.19;5111412;28;20682;-61
2023/08/13 05:48:24;;;;;;;5.38;3.10;;;;;;;23.57;85.05;99672.47;5111783;28;20222;-61
2023/08/13 05:50:51;;;;;;;5.22;2.97;;;;;;;23.67;83.99;99665.16;5111260;28;20589;-61
2023/08/13 05:53:18;;;;;;;3.60;2.60;;;;;;;23.85;84.53;99666.63;5111216;28;20205;-62
2023/08/13 05:55:45;;;;;;;4.00;2.95;;;;;;;23.97;80.86;99667.78;5111191;28;20208;-61
2023/08/13 05:58:13;;;;;;;5.82;2.75;;;;;;;24.09;78.55;99676.75;5111087;28;20207;-62
2023/08/13 06:00:40;;;;;;;4.07;3.08;;;;;;;24.21;83.20;99669.25;5111115;28;20201;-62
2023/08/13 06:03:07;;;;;;;4.03;2.95;;;;;;;24.33;78.86;99666.97;5110818;28;20235;-61
2023/08/13 06:05:34;;;;;;;4.13;2.97;;;;;;;24.35;80.58;99675.44;5111135;28;20201;-61
2023/08/13 06:08:02;;;;;;;4.18;3.17;;;;;;;24.57;79.27;99679.69;5111134;28;20217;-62
2023/08/13 06:10:28;;;;;;;3.50;2.90;;;;;;;24.74;83.52;99680.25;5110897;28;20189;-62
2023/08/13 06:12:55;;;;;;;4.28;2.92;;;;;;;24.99;82.98;99685.88;5110156;28;20194;-62
2023/08/13 06:15:24;;;;;;;3.50;2.83;;;;;;;25.06;76.59;99694.56;5110699;28;20602;-62
2023/08/13 06:17:51;;;;;;;4.65;2.85;;;;;;;25.09;79.02;99688.16;5110684;28;20201;-62
2023/08/13 06:20:18;;;;;;;3.47;2.70;;;;;;;25.22;76.25;99696.16;5110721;28;20202;-62
2023/08/13 06:22:45;;;;;;;6.28;2.92;;;;;;;25.46;80.05;99689.66;5110509;28;20229;-62
2023/08/13 06:25:12;;;;;;;4.60;2.75;;;;;;;25.65;77.64;99697.78;5110520;28;20388;-62
2023/08/13 06:27:39;;;;;;;5.07;3.10;;;;;;;25.87;76.86;99701.16;5110570;28;20198;-62
2023/08/13 06:30:07;;;;;;;4.35;2.92;;;;;;;25.97;72.79;99693.72;5110423;28;20205;-62
2023/08/13 06:32:36;;;;;;;3.97;2.70;;;;;;;26.02;68.79;99699.19;5110633;28;20244;-62
2023/08/13 06:35:03;;;;;;;5.55;3.03;;;;;;;26.09;75.75;99688.72;5110474;28;20197;-62
2023/08/13 06:37:29;;;;;;;4.07;2.97;;;;;;;26.20;69.93;99703.88;5110640;28;20194;-62
2023/08/13 06:39:56;;;;;;;3.42;2.67;;;;;;;26.30;71.52;99701.72;5110271;28;20205;-62
2023/08/13 06:42:23;;;;;;;4.22;2.90;;;;;;;26.50;70.84;99700.94;5110179;27;20240;-62
2023/08/13 06:44:50;;;;;;;5.25;2.90;;;;;;;26.55;70.88;99703.78;5110542;28;20197;-62
2023/08/13 06:47:17;;;;;;;8.75;2.75;;;;;;;26.69;71.90;99697.56;5109988;28;20457;-62
2023/08/13 06:49:45;;;;;;;5.80;3.00;;;;;;;26.89;74.65;99707.25;5110190;28;20201;-61
2023/08/13 06:52:12;;;;;;;3.13;2.67;;;;;;;26.94;70.71;99703.03;5108326;28;20201;-61
2023/08/13 06:54:39;;;;;;;3.70;2.78;;;;;;;27.07;69.71;99696.94;5109944;28;20193;-60
2023/08/13 06:57:05;;;;;;;4.30;3.10;;;;;;;27.27;66.28;99702.22;5109959;28;20212;-58
2023/08/13 06:59:32;;;;;;;3.15;2.63;;;;;;;27.46;67.87;99705.78;5109669;28;20634;-59
2023/08/13 07:01:59;;;;;;;3.35;2.90;;;;;;;27.68;68.83;99709.78;5109376;28;20208;-59
2023/08/13 07:04:26;;;;;;;3.20;2.70;;;;;;;27.83;66.49;99706.13;5109393;28;20588;-63
2023/08/13 07:06:55;;;;;;;5.22;3.00;;;;;;;28.05;63.18;99706.66;5109490;28;20278;-61
2023/08/13 07:09:24;;;;;;;3.45;2.88;;;;;;;28.02;60.67;99715.75;5109592;28;20213;-62
2023/08/13 07:11:52;;;;;;;3.88;2.75;;;;;;;28.02;58.10;99712.34;5109657;28;20362;-61
2023/08/13 07:14:19;;;;;;;6.00;3.03;;;;;;;28.19;67.71;99705.56;5109634;28;20201;-61
2023/08/13 07:16:46;;;;;;;4.70;3.15;;;;;;;28.47;69.31;99701.78;5109653;28;20194;-62
2023/08/13 07:19:13;;;;;;;3.67;2.67;;;;;;;28.57;58.39;99708.19;5109368;28;20249;-63
2023/08/13 07:21:40;;;;;;;3.97;2.78;;;;;;;28.75;63.43;99709.28;5109515;28;20685;-64
2023/08/13 07:24:08;;;;;;;5.75;2.90;;;;;;;28.79;57.25;99706.00;5108866;28;20510;-61
2023/08/13 07:26:35;;;;;;;5.03;2.55;;;;;;;29.03;60.75;99711.50;5109283;28;20204;-66
2023/08/13 07:29:06;;;;;;;5.18;2.90;;;;;;;29.09;51.69;99713.28;5109502;28;20584;-65
2023/08/13 07:31:34;;;;;;;4.10;2.80;;;;;;;29.20;55.51;99717.03;5109383;28;20674;-62
2023/08/13 07:34:01;;;;;;;9.63;3.88;;;;;;;29.16;49.96;99713.22;5109080;28;20686;-59
2023/08/13 07:36:28;;;;;;;4.65;2.78;;;;;;;29.24;49.81;99718.22;5109722;28;20208;-60
2023/08/13 07:38:55;;;;;;;4.03;3.08;;;;;;;29.25;48.11;99725.09;5109126;28;20205;-61
2023/08/13 07:41:23;;;;;;;5.38;2.75;;;;;;;29.31;46.46;99716.31;5109121;28;20682;-60
2023/08/13 07:43:50;;;;;;;3.72;3.10;;;;;;;29.31;45.05;99716.31;5109117;28;20240;-61
2023/08/13 07:46:17;;;;;;;4.00;2.78;;;;;;;29.48;50.88;99708.66;5108967;28;20284;-62
2023/08/13 07:48:44;;;;;;;3.50;2.47;;;;;;;29.52;46.83;99709.81;5109297;28;20204;-62
2023/08/13 07:51:11;;;;;;;3.95;2.63;;;;;;;29.68;46.40;99700.56;5108963;28;20215;-62
2023/08/13 07:53:38;;;;;;;4.07;3.00;;;;;;;29.78;45.90;99711.38;5108724;28;20662;-61
2023/08/13 07:56:05;;;;;;;2.67;2.25;;;;;;;29.83;46.83;99722.06;5109115;28;20597;-62
2023/08/13 07:58:33;;;;;;;3.83;2.70;;;;;;;29.87;51.60;99709.22;5109424;28;20252;-61
2023/08/13 08:01:00;;;;;;;3.35;2.33;;;;;;;29.76;45.03;99713.44;5109091;28;20262;-60
2023/08/13 08:03:28;;;;;;;3.03;2.40;;;;;;;29.83;45.35;99708.88;5108920;28;20270;-60
2023/08/13 08:05:55;;;;;;;2.80;2.50;;;;;;;30.12;47.64;99714.41;5108774;28;20259;-60
2023/08/13 08:08:21;;;;;;;3.15;2.60;;;;;;;30.07;46.64;99716.91;5108723;28;20240;-60
2023/08/13 08:10:48;;;;;;;3.10;2.53;;;;;;;30.25;45.74;99714.22;5108485;28;20201;-60
2023/08/13 08:13:15;;;;;;;2.95;2.60;;;;;;;30.34;48.32;99718.19;5108346;28;20205;-60
2023/08/13 08:15:43;;;;;;;5.65;2.95;;;;;;;30.18;44.29;99716.16;5108753;28;20205;-60
2023/08/13 08:18:10;;;;;;;3.75;2.63;;;;;;;30.15;44.04;99711.31;5108346;28;20201;-60
2023/08/13 08:20:37;;;;;;;2.90;2.45;;;;;;;30.48;46.33;99708.22;5108536;28;20209;-60
2023/08/13 08:23:04;;;;;;;3.67;2.63;;;;;;;30.60;43.60;99705.59;5108649;28;20237;-60
2023/08/13 08:25:31;;;;;;;2.88;2.60;;;;;;;30.62;43.27;99700.91;5108581;28;20232;-60
2023/08/13 08:27:58;;;;;;;5.20;2.85;;;;;;;30.82;46.55;99696.16;5108679;28;20200;-60
2023/08/13 08:30:24;;;;;;;3.20;2.53;;;;;;;30.94;46.57;99684.78;5108522;28;20584;-60
2023/08/13 08:32:53;;;;;;;3.95;2.88;;;;;;;31.05;42.02;99694.56;5108229;28;20208;-60
2023/08/13 08:35:19;;;;;;;3.25;2.47;;;;;;;31.28;46.51;99691.09;5108266;28;20197;-60
2023/08/13 08:37:46;;;;;;;3.65;2.63;;;;;;;31.15;41.76;99693.97;5108085;28;20204;-60
2023/08/13 08:40:13;;;;;;;3.65;2.67;;;;;;;31.11;44.25;99685.72;5108171;28;20197;-61
2023/08/13 08:42:42;;;;;;;2.78;2.10;;;;;;;31.09;42.06;99693.06;5108010;28;20209;-60
2023/08/13 08:45:11;;;;;;;3.13;2.40;;;;;;;30.95;42.68;99691.69;5108083;28;20194;-60
2023/08/13 08:47:40;;;;;;;2.60;2.40;;;;;;;30.82;42.10;99693.50;5107563;28;20706;-61
2023/08/13 08:50:11;;;;;;;3.33;2.42;;;;;;;31.06;43.72;99693.50;5107074;28;20590;-60
2023/08/13 08:52:39;;;;;;;2.83;2.33;;;;;;;31.31;41.68;99690.63;5107893;28;20204;-59
2023/08/13 08:55:07;;;;;;;3.38;2.63;;;;;;;31.17;37.76;99690.06;5108266;28;20197;-60
2023/08/13 08:57:37;;;;;;;3.25;2.53;;;;;;;31.28;40.04;99691.91;5107912;28;20671;-61
2023/08/13 09:00:05;;;;;;;2.88;2.55;;;;;;;31.50;41.21;99683.38;5107407;28;20194;-61
2023/08/13 09:02:32;;;;;;;4.43;2.50;;;;;;;31.84;41.24;99683.53;5107891;28;20295;-61
2023/08/13 09:04:59;;;;;;;4.28;2.40;;;;;;;31.77;39.05;99687.09;5108180;28;20205;-62
2023/08/13 09:07:31;;;;;;;3.85;2.28;;;;;;;31.79;42.17;99682.41;5107892;28;20206;-58
2023/08/13 09:09:58;;;;;;;2.80;2.35;;;;;;;31.78;41.17;99675.47;5108050;28;20185;-62
2023/08/13 09:12:25;;;;;;;4.03;2.60;;;;;;;31.63;41.50;99671.75;5107829;28;20566;-64
2023/08/13 09:14:55;;;;;;;3.30;2.70;;;;;;;31.80;41.46;99678.69;5107949;28;20678;-63
2023/08/13 09:17:24;;;;;;;2.95;2.50;;;;;;;31.59;41.41;99671.41;5108086;28;20674;-59
2023/08/13 09:19:51;;;;;;;3.00;2.40;;;;;;;31.82;43.07;99680.31;5107963;28;20435;-60
2023/08/13 09:22:18;;;;;;;2.50;2.10;;;;;;;31.89;41.18;99673.84;5107710;28;20208;-61
2023/08/13 09:24:46;;;;;;;5.07;2.17;;;;;;;32.04;43.04;99668.06;5107666;28;20240;-61
2023/08/13 09:27:13;;;;;;;4.60;2.78;;;;;;;32.24;44.66;99668.41;5103059;28;20232;-60
2023/08/13 09:29:40;;;;;;;5.93;3.13;;;;;;;32.46;42.17;99665.06;5087303;28;20209;-61
2023/08/13 09:32:08;;;;;;;6.18;4.00;;;;;;;32.53;40.58;99665.72;5087359;28;20198;-60
2023/08/13 09:34:35;;;;;;;7.53;4.25;;;;;;;32.54;42.99;99667.31;5087351;28;20667;-60
2023/08/13 09:37:01;;;;;;;5.00;3.10;;;;;;;32.43;40.90;99665.53;5087114;28;20205;-60
2023/08/13 09:39:30;;;;;;;5.18;3.15;;;;;;;32.48;39.64;99665.66;5087671;28;20207;-60
2023/08/13 09:42:00;;;;;;;57.63;21.38;;;;;;;32.40;40.51;99660.72;5087305;28;20743;-59
2023/08/13 09:44:29;;;;;;;8.65;4.70;;;;;;;32.72;44.72;99662.81;5087274;28;20870;-59
2023/08/13 09:47:00;;;;;;;39.15;17.23;;;;;;;32.84;40.40;99666.19;5087209;28;20267;-60
2023/08/13 09:49:30;;;;;;;4.43;2.90;;;;;;;32.93;39.44;99667.41;5090391;28;20596;-61
2023/08/13 09:52:00;;;;;;;5.55;3.58;;;;;;;32.92;38.88;99666.56;5091076;28;20565;-60
2023/08/13 09:54:33;;;;;;;2.55;2.20;;;;;;;32.88;39.95;99665.47;5100598;28;20189;-58
2023/08/13 09:57:03;;;;;;;3.47;2.58;;;;;;;32.92;42.17;99658.63;5111102;28;20197;-59
2023/08/13 09:59:34;;;;;;;2.85;2.45;;;;;;;32.98;37.16;99664.00;5111117;28;20247;-59
2023/08/13 10:02:01;;;;;;;3.63;2.67;;;;;;;32.93;37.02;99659.44;5111145;28;20629;-59
2023/08/13 10:04:28;;;;;;;2.97;2.40;;;;;;;32.88;38.29;99662.81;5111388;28;20225;-60
2023/08/13 10:06:56;;;;;;;3.17;2.58;;;;;;;32.72;38.06;99670.78;5110945;28;20208;-60
2023/08/13 10:09:23;;;;;;;3.03;2.40;;;;;;;32.94;40.92;99657.59;5110845;28;20693;-60
2023/08/13 10:11:49;;;;;;;2.90;2.47;;;;;;;32.94;40.47;99655.75;5110598;28;20212;-60
2023/08/13 10:14:18;;;;;;;2.50;2.30;;;;;;;32.89;37.76;99658.31;5111237;28;20621;-60
2023/08/13 10:16:47;;;;;;;3.17;2.78;;;;;;;32.96;40.22;99658.13;5110751;28;20201;-60
2023/08/13 10:19:14;;;;;;;4.20;2.50;;;;;;;33.14;41.24;99652.59;5110743;28;20217;-60
2023/08/13 10:21:41;;;;;;;3.17;2.60;;;;;;;33.07;37.93;99657.25;5110067;28;20678;-60
2023/08/13 10:24:12;;;;;;;3.95;2.80;;;;;;;33.11;39.86;99656.53;5110699;28;20240;-60
2023/08/13 10:26:42;;;;;;;3.42;2.50;;;;;;;33.16;36.10;99655.00;5110165;28;20189;-61
2023/08/13 10:29:16;;;;;;;3.10;2.67;;;;;;;33.13;37.37;99643.84;5108563;28;20201;-58
2023/08/13 10:31:49;;;;;;;3.42;2.40;;;;;;;33.38;38.55;99650.50;5110158;28;20198;-65
2023/08/13 10:34:17;;;;;;;3.00;2.67;;;;;;;33.33;37.73;99653.88;5108525;28;20194;-60
2023/08/13 10:36:52;;;;;;;5.13;2.60;;;;;;;33.10;37.02;99644.34;5109681;28;20266;-60
2023/08/13 10:39:36;;;;;;;3.42;2.63;;;;;;;32.94;35.09;99649.66;5110074;28;20273;-59
2023/08/13 10:42:05;;;;;;;4.68;2.50;;;;;;;32.96;35.93;99636.94;5108892;28;20201;-60
2023/08/13 10:44:33;;;;;;;3.85;2.47;;;;;;;32.83;36.60;99638.91;5109960;28;20240;-60
2023/08/13 10:47:03;;;;;;;2.92;2.45;;;;;;;33.03;38.83;99638.41;5110141;28;20193;-60
2023/08/13 10:49:30;;;;;;;3.50;2.55;;;;;;;33.01;39.51;99629.91;5110113;28;20208;-60
2023/08/13 10:52:02;;;;;;;3.75;2.47;;;;;;;33.28;39.01;99632.63;5109940;28;20734;-59
2023/08/13 10:54:28;;;;;;;3.05;2.42;;;;;;;33.49;38.89;99631.03;5110164;28;20262;-59
2023/08/13 10:56:58;;;;;;;3.85;2.85;;;;;;;33.08;34.71;99632.38;5109914;28;20223;-60
2023/08/13 10:59:32;;;;;;;2.75;2.20;;;;;;;33.13;36.82;99622.66;5109706;28;20209;-60
2023/08/13 11:02:17;;;;;;;3.55;2.72;;;;;;;32.95;37.80;99630.84;5109877;28;20201;-60
2023/08/13 11:04:45;;;;;;;3.60;2.67;;;;;;;32.87;35.94;99621.50;5109839;28;20252;-59
2023/08/13 11:07:13;;;;;;;3.15;2.63;;;;;;;33.01;39.16;99616.66;5109574;28;20193;-59
2023/08/13 11:09:42;;;;;;;3.15;2.38;;;;;;;33.16;38.78;99616.03;5109682;28;20288;-59
2023/08/13 11:12:10;;;;;;;9.50;4.60;;;;;;;33.27;41.18;99611.66;5109808;28;20201;-60
2023/08/13 11:14:38;;;;;;;4.35;3.10;;;;;;;33.36;39.45;99604.88;5107493;28;20217;-61
2023/08/13 11:17:05;;;;;;;3.47;2.42;;;;;;;33.48;37.51;99612.69;5107125;28;20730;-61
2023/08/13 11:19:34;;;;;;;3.38;2.70;;;;;;;33.74;35.61;99598.69;5108530;28;20197;-61
2023/08/13 11:22:02;;;;;;;3.78;2.47;;;;;;;34.03;36.08;99596.59;5109036;28;20198;-62
2023/08/13 11:24:32;;;;;;;3.50;2.53;;;;;;;33.92;34.06;99600.19;5107816;28;20217;-62
2023/08/13 11:26:59;;;;;;;3.30;2.78;;;;;;;33.97;37.20;99589.59;5105609;28;20524;-61
2023/08/13 11:29:25;;;;;;;3.28;2.65;;;;;;;33.89;35.31;99598.03;5108878;28;20208;-62
2023/08/13 11:31:52;;;;;;;3.05;2.58;;;;;;;33.66;35.45;99598.31;5109392;28;20227;-65
2023/08/13 11:34:19;;;;;;;4.80;2.60;;;;;;;33.01;38.46;99582.19;5109252;28;20675;-64